createdAt,value
2022-10-06T12:10:23.602Z,1021.87
2022-10-06T12:11:23.564Z,1021.85
2022-10-06T12:12:23.557Z,1021.89
2022-10-06T12:14:12.328Z,1021.87
2022-10-06T12:16:25.859Z,1021.86
2022-10-06T12:17:23.467Z,1021.87
2022-10-06T12:18:23.446Z,1021.78
2022-10-06T12:19:23.428Z,1021.85
2022-10-06T12:20:23.436Z,1021.89
2022-10-06T12:21:23.398Z,1021.83
2022-10-06T12:22:23.382Z,1021.87
2022-10-06T12:23:23.380Z,1021.86
2022-10-06T12:24:23.352Z,1021.84
2022-10-06T12:25:23.352Z,1021.85
2022-10-06T12:26:23.340Z,1021.86
2022-10-06T12:27:25.750Z,1021.91
2022-10-06T12:28:23.352Z,1021.85
2022-10-06T12:29:23.269Z,1021.84
2022-10-06T12:30:23.277Z,1021.85
2022-10-06T12:31:23.281Z,1021.88
2022-10-06T12:32:23.226Z,1021.78
2022-10-06T12:33:23.240Z,1021.79
2022-10-06T12:34:23.205Z,1021.79
2022-10-06T12:35:23.195Z,1021.76
2022-10-06T12:36:23.177Z,1021.77
2022-10-06T12:37:23.152Z,1021.79
2022-10-06T12:38:23.139Z,1021.79
2022-10-06T12:39:23.123Z,1021.70
2022-10-06T12:40:23.128Z,1021.74
2022-10-06T12:41:23.112Z,1021.74
2022-10-06T12:42:23.078Z,1021.66
2022-10-06T12:43:23.062Z,1021.71
2022-10-06T12:44:23.054Z,1021.67
2022-10-06T12:45:23.059Z,1021.68
2022-10-06T12:46:23.082Z,1021.67
2022-10-06T12:47:23.026Z,1021.67
2022-10-06T12:48:22.995Z,1021.68
2022-10-06T12:49:22.985Z,1021.66
2022-10-06T12:50:22.966Z,1021.68
2022-10-06T12:51:23.041Z,1021.67
2022-10-06T12:52:22.955Z,1021.66
2022-10-06T12:53:22.932Z,1021.68
2022-10-06T12:54:22.918Z,1021.62
2022-10-06T12:55:22.907Z,1021.60
2022-10-06T12:56:22.999Z,1021.65
2022-10-06T12:57:22.875Z,1021.65
2022-10-06T12:58:22.863Z,1021.61
2022-10-06T12:59:22.850Z,1021.62
2022-10-06T13:00:22.890Z,1021.64
2022-10-06T13:01:22.889Z,1021.63
2022-10-06T13:02:22.865Z,1021.65
2022-10-06T13:03:22.816Z,1021.62
2022-10-06T13:04:22.787Z,1021.58
2022-10-06T13:05:22.789Z,1021.64
2022-10-06T13:06:22.782Z,1021.60
2022-10-06T13:07:22.749Z,1021.58
2022-10-06T13:08:22.744Z,1021.58
2022-10-06T13:09:22.735Z,1021.54
2022-10-06T13:10:22.722Z,1021.57
2022-10-06T13:11:22.713Z,1021.60
2022-10-06T13:12:22.684Z,1021.56
2022-10-06T13:13:22.680Z,1021.56
2022-10-06T13:14:22.671Z,1021.59
2022-10-06T13:15:22.699Z,1021.59
2022-10-06T13:16:22.727Z,1021.57
2022-10-06T13:17:22.635Z,1021.57
2022-10-06T13:18:22.621Z,1021.49
2022-10-06T13:19:22.604Z,1021.49
2022-10-06T13:20:22.591Z,1021.50
2022-10-06T13:21:22.604Z,1021.51
2022-10-06T13:22:22.570Z,1021.47
2022-10-06T13:23:22.561Z,1021.46
2022-10-06T13:24:22.542Z,1021.49
2022-10-06T13:25:22.528Z,1021.43
2022-10-06T13:26:22.527Z,1021.41
2022-10-06T13:27:22.514Z,1021.48
2022-10-06T13:28:22.649Z,1021.40
2022-10-06T13:29:22.487Z,1021.41
2022-10-06T13:30:22.473Z,1021.44
2022-10-06T13:31:22.497Z,1021.45
2022-10-06T13:32:22.439Z,1021.47
2022-10-06T13:33:22.440Z,1021.46
2022-10-06T13:34:22.421Z,1021.43
2022-10-06T13:35:22.410Z,1021.40
2022-10-06T13:36:22.404Z,1021.40
2022-10-06T13:37:22.388Z,1021.39
2022-10-06T13:38:22.375Z,1021.34
2022-10-06T13:39:22.374Z,1021.35
2022-10-06T13:40:43.476Z,1021.34
2022-10-06T13:41:22.351Z,1021.34
2022-10-06T13:42:22.325Z,1021.34
2022-10-06T13:43:22.306Z,1021.38
2022-10-06T13:44:22.303Z,1021.34
2022-10-06T13:45:22.291Z,1021.36
2022-10-06T13:46:22.350Z,1021.32
2022-10-06T13:47:22.256Z,1021.33
2022-10-06T13:48:22.254Z,1021.38
2022-10-06T13:49:22.248Z,1021.37
2022-10-06T13:50:22.226Z,1021.38
2022-10-06T13:51:22.236Z,1021.37
2022-10-06T13:52:22.200Z,1021.42
2022-10-06T13:53:22.185Z,1021.46
2022-10-06T13:54:22.175Z,1021.45
2022-10-06T13:55:22.172Z,1021.45
2022-10-06T13:56:22.212Z,1021.43
2022-10-06T13:57:22.157Z,1021.42
2022-10-06T13:58:22.142Z,1021.42
2022-10-06T13:59:22.131Z,1021.33
2022-10-06T14:10:30.188Z,1021.36
2022-10-06T14:11:30.105Z,1021.33
2022-10-06T14:12:30.092Z,1021.31
2022-10-06T14:13:30.079Z,1021.34
2022-10-06T14:14:30.055Z,1021.36
2022-10-06T14:15:30.121Z,1021.42
2022-10-06T14:16:30.062Z,1021.49
2022-10-06T14:17:30.020Z,1021.58
2022-10-06T14:18:30.008Z,1021.59
2022-10-06T14:19:30.006Z,1021.66
2022-10-06T14:20:29.988Z,1021.70
2022-10-06T14:21:29.987Z,1021.71
2022-10-06T14:22:29.968Z,1021.67
2022-10-06T14:23:37.809Z,1021.72
2022-10-06T14:24:29.943Z,1021.70
2022-10-06T14:25:29.944Z,1021.58
2022-10-06T14:26:29.945Z,1021.50
2022-10-06T14:27:29.926Z,1021.43
2022-10-06T14:28:29.950Z,1021.36
2022-10-06T14:29:29.916Z,1021.33
2022-10-06T14:30:29.891Z,1021.32
2022-10-06T14:31:29.902Z,1021.28
2022-10-06T14:32:29.873Z,1021.24
2022-10-06T14:33:29.861Z,1021.18
2022-10-06T14:34:29.841Z,1021.11
2022-10-06T14:35:29.843Z,1021.20
2022-10-06T14:36:29.821Z,1021.14
2022-10-06T14:37:29.813Z,1021.09
2022-10-06T14:38:29.813Z,1021.08
